• Join FlightAware (Why Join?)
  • Login
  • US Flag 
03:37AM EST


 

Airport Tracker/Info


-or-


 

Live Flight TrackerFlight Track Log ✈ SWA1054 ✈ 25-Apr-2012 ✈ KDEN - KIND

Flight Track Log - Related Links

Times and Time Zones

All times are in EDT time to prevent confusion due to time zone crossing. See the SWA1054 flight status page for this flight to view local times or setup timezone preferences in your user account.

Time Position Orientation Groundspeed Altitude Reporting Facility
EDT Latitude Longitude Course Direction KTS MPH feet Rate Location/Type
06:05PM 39.8833 -104.5833 90° East 186 214 7,400  Level Denver TRACON
06:06PM 39.8833 -104.4833 93° East 259 298 9,900 2,982 Climbing Denver TRACON
06:08PM 39.8756 -104.2925 89° East 325 374 15,700 2,981 Climbing Denver Center
06:09PM 39.8775 -104.1842 89° East 331 381 17,900 2,550 Climbing Denver Center
06:10PM 39.8789 -104.0542 88° East 344 396 20,800 2,550 Climbing Denver Center
06:11PM 39.8822 -103.9186 90° East 363 418 23,000 1,750 Climbing Denver Center
06:12PM 39.8831 -103.7669 85° East 399 459 24,300 1,500 Climbing Denver Center
06:13PM 39.8936 -103.6042 84° East 435 501 26,000 1,850 Climbing Denver Center
06:14PM 39.9075 -103.4169 84° East 462 532 28,000 1,850 Climbing Denver Center
06:15PM 39.9217 -103.2403 85° East 487 560 29,700 1,600 Climbing Denver Center
06:16PM 39.9331 -103.0608 85° East 492 566 31,200 1,550 Climbing Denver Center
06:17PM 39.9461 -102.8761 87° East 509 586 32,800 1,750 Climbing Denver Center
06:18PM 39.9525 -102.6833 83° East 515 593 34,700 1,650 Climbing Denver Center
06:19PM 39.9692 -102.4953 85° East 520 598 36,100 1,300 Climbing Denver Center
06:20PM 39.9814 -102.3131 79° East 514 592 37,300 1,150 Climbing Denver Center
06:21PM 40.0067 -102.1461 81° East 514 592 38,400 1,150 Climbing Denver Center
06:22PM 40.0322 -101.9436 80° East 514 592 39,600 1,250 Climbing Denver Center
06:23PM 40.0561 -101.7603 81° East 514 592 40,900 700 Climbing Denver Center
06:24PM 40.0764 -101.5986 80° East 504 580 41,000 50 Climbing Denver Center
06:25PM 40.1000 -101.4203 79° East 504 580 41,000  Level Denver Center
06:26PM 40.1289 -101.2228 81° East 504 580 41,000  Level Denver Center
06:27PM 40.1497 -101.0444 81° East 504 580 41,000  Level Denver Center
06:28PM 40.1692 -100.8822 80° East 499 574 41,000  Level Denver Center
06:29PM 40.1947 -100.6869 84° East 499 574 41,000  Level Denver Center
06:30PM 40.2086 -100.5064 90° East 492 566 41,000  Level Denver Center
06:31PM 40.2083 -100.3458 88° East 497 572 41,000  Level Denver Center
06:32PM 40.2133 -100.1683 89° East 497 572 41,000  Level Denver Center
06:33PM 40.2169 -99.9694 91° East 497 572 41,000  Level Denver Center
06:34PM 40.2150 -99.7900 88° East 497 572 41,000  Level Denver Center
06:35PM 40.2189 -99.6100 90° East 497 572 41,000  Level Denver Center
06:36PM 40.2194 -99.3928 89° East 502 578 41,000  Level Minneapolis Center
06:37PM 40.2211 -99.2111 89° East 497 572 41,000  Level Minneapolis Center
06:38PM 40.2222 -99.0267 89° East 497 572 41,000  Level Minneapolis Center
06:39PM 40.2233 -98.8447 91° East 497 572 41,000  Level Minneapolis Center
06:40PM 40.2217 -98.6656 89° East 497 572 41,000  Level Minneapolis Center
06:41PM 40.2239 -98.4839 90° East 497 572 41,000  Level Minneapolis Center
06:42PM 40.2239 -98.3019 89° East 497 572 41,000  Level Minneapolis Center
06:43PM 40.2256 -98.1203 91° East 497 572 41,000  Level Minneapolis Center
06:44PM 40.2228 -97.9411 89° East 497 572 41,000  Level Minneapolis Center
06:45PM 40.2239 -97.7622 91° East 497 572 41,000  Level Minneapolis Center
06:46PM 40.2225 -97.5828 91° East 497 572 41,000  Level Minneapolis Center
06:47PM 40.2189 -97.4064 92° East 497 572 41,000  Level Minneapolis Center
06:48PM 40.2139 -97.2486 91° East 492 566 41,000  Level Minneapolis Center
06:49PM 40.2119 -97.0694 91° East 492 566 41,000  Level Minneapolis Center
06:50PM 40.2094 -96.8903 91° East 492 566 41,000  Level Minneapolis Center
06:51PM 40.2067 -96.7058 90° East 497 572 41,000  Level Minneapolis Center
06:55PM 40.2011 -95.9781 90° East 491 565 41,000  Level Kansas City Center
06:56PM 40.2011 -95.8042 90° East 491 565 41,000  Level Kansas City Center
06:57PM 40.2008 -95.6278 91° East 486 559 41,000  Level Kansas City Center
06:58PM 40.1981 -95.4703 92° East 481 554 41,000  Level Kansas City Center
06:59PM 40.1931 -95.2936 89° East 475 547 41,000  Level Kansas City Center
07:00PM 40.1942 -95.1033 91° East 481 554 41,000  Level Kansas City Center
07:01PM 40.1908 -94.9269 91° East 474 545 41,000  Level Kansas City Center
07:02PM 40.1892 -94.7639 92° East 484 557 41,000  Level Kansas City Center
07:03PM 40.1853 -94.5875 91° East 484 557 41,000  Level Kansas City Center
07:04PM 40.1831 -94.3919 92° East 484 557 41,000  Level Kansas City Center
07:05PM 40.1786 -94.2128 91° East 497 572 41,000  Level Kansas City Center
07:06PM 40.1758 -94.0336 92° East 492 566 41,000  Level Kansas City Center
07:07PM 40.1708 -93.8517 92° East 492 566 41,000  Level Kansas City Center
07:08PM 40.1656 -93.6725 91° East 498 573 41,000  Level Kansas City Center
07:09PM 40.1622 -93.4961 91° East 493 567 41,000  Level Kansas City Center
07:10PM 40.1586 -93.3169 93° East 488 562 41,000  Level Kansas City Center
07:11PM 40.1503 -93.1381 92° East 488 562 41,000  Level Kansas City Center
07:12PM 40.1461 -92.9589 93° East 495 570 41,000  Level Kansas City Center
07:13PM 40.1394 -92.7800 93° East 489 563 41,000  Level Kansas City Center
07:14PM 40.1325 -92.6036 96° East 489 563 41,000  Level Kansas City Center
07:15PM 40.1194 -92.4414 96° East 491 565 41,000  Level Kansas City Center
07:16PM 40.1061 -92.2681 97° East 491 565 41,000  Level Kansas City Center
07:17PM 40.0900 -92.0897 98° East 491 565 41,000  Level Kansas City Center
07:18PM 40.0717 -91.9111 97° East 491 565 41,000  Level Kansas City Center
07:19PM 40.0528 -91.7167 97° East 491 565 41,000  Level Kansas City Center
07:20PM 40.0361 -91.5467 98° East 491 565 41,000  Level Kansas City Center
07:21PM 40.0172 -91.3714 96° East 485 558 41,000  Level Kansas City Center
07:22PM 40.0022 -91.1986 98° East 480 552 41,000  Level Kansas City Center
07:23PM 39.9847 -91.0289 98° East 480 552 41,000 -500 Level Kansas City Center
07:24PM 39.9672 -90.8592 98° East 480 552 40,000 -950 Descending Kansas City Center
07:25PM 39.9472 -90.6814 98° East 485 558 39,100 -850 Descending Kansas City Center
07:26PM 39.9289 -90.5039 98° East 485 558 38,300 -850 Descending Kansas City Center
07:27PM 39.9103 -90.3264 98° East 485 558 37,400 -950 Descending Kansas City Center
07:28PM 39.8917 -90.1542 98° East 485 558 36,400 -950 Descending Kansas City Center
07:29PM 39.8728 -89.9797 99° East 485 558 35,500 -700 Descending Kansas City Center
07:30PM 39.8514 -89.8053 97° East 485 558 35,000 -650 Descending Kansas City Center
07:31PM 39.8364 -89.6361 89° East 480 552 34,200 -850 Descending Kansas City Center
07:32PM 39.8394 -89.4600 90° East 475 547 33,300 -950 Descending Kansas City Center
07:33PM 39.8383 -89.2872 89° East 480 552 32,300 -1,000 Descending Kansas City Center
07:34PM 39.8411 -89.1139 91° East 480 552 31,300 -650 Descending Kansas City Center
07:35PM 39.8392 -88.9383 91° East 479 551 31,000 -640 Descending Kansas City Center
07:37PM 39.8347 -88.5592 90° East 478 550 29,200 -1,371 Descending Indianapolis Center
07:38PM 39.8339 -88.3806 90° East 478 550 26,500 -2,508 Descending Indianapolis Center
07:39PM 39.8342 -88.2131 91° East 478 550 24,100 -1,136 Descending Indianapolis Center
07:40PM 39.8317 -88.0128 90° East 463 533 24,000 -462 Descending Indianapolis Center
07:41PM 39.8314 -87.8478 90° East 463 533 23,100 -950 Descending Indianapolis Center
07:42PM 39.8308 -87.6883 90° East 453 521 22,100 -1,350 Descending Indianapolis Center
07:43PM 39.8300 -87.5286 91° East 448 516 20,400 -2,250 Descending Indianapolis Center
07:44PM 39.8269 -87.3689 89° East 439 505 17,600 -2,700 Descending Indianapolis Center
07:45PM 39.8281 -87.2042 91° East 428 493 15,000 -2,550 Descending Indianapolis Center
07:46PM 39.8261 -87.0553 91° East 421 484 12,500 -1,500 Descending Indianapolis Center
07:47PM 39.8242 -86.9144 93° East 397 457 12,000 -250 Descending Indianapolis Center
07:48PM 39.8192 -86.7925 120° Southeast 365 420 12,000 -1,250 Level Indianapolis Center
07:49PM 39.7739 -86.6906 131° Southeast 333 383 9,500 -2,900 Descending Indianapolis Center
07:50PM 39.7178 -86.6072 138° Southeast 322 371 6,200 -2,750 Descending Indianapolis Center
07:51PM 39.6611 -86.5400 111° Southeast 291 335 4,000 -1,450 Descending Indianapolis Center
07:52PM 39.6400 -86.4689 86° East 235 270 3,300 -800 Descending Indianapolis Center
07:53PM 39.6433 -86.4125 53° Northeast 169 194 2,400 -750 Descending Indianapolis Center
07:54PM 39.6694 -86.3675 45° Northeast 150 173 1,800 -650 Descending Indianapolis Center
07:55PM 39.6953 -86.3336 45° Northeast 143 165 1,100 -500 Descending Indianapolis Center
07:56PM 39.7211 -86.2994 43° Northeast 138 159 800 5,450 Descending Indianapolis Center
07:57PM 39.7489 -86.2656 43° Northeast 138 159 12,000 11,200 Climbing Indianapolis Center